Time;durP1;ratioP1;P1;durP2;ratioP2;P2;SDS_P1;SDS_P2;PMS_P1;PMS_P2;Temp;Humidity;BMP_temperature;BMP_pressure;BME280_temperature;BME280_humidity;BME280_pressure;Samples;Min_cycle;Max_cycle;Signal;HPM_P1;HPM_P2
2022/11/21 00:01:13;;;;;;;28.63;5.85;;;;;;;;;;5075727;28;20028;-59
2022/11/21 00:03:39;;;;;;;29.67;5.88;;;;;;;;;;5074916;28;20035;-59
2022/11/21 00:06:05;;;;;;;28.13;7.18;;;;;;;;;;5074027;28;20025;-59
2022/11/21 00:08:31;;;;;;;37.63;8.20;;;;;;;;;;5075103;28;20024;-59
2022/11/21 00:11:01;;;;;;;28.85;6.72;;;;;;;;;;5075669;28;20096;-59
2022/11/21 00:13:27;;;;;;;32.25;6.05;;;;;;;;;;5075051;28;20063;-59
2022/11/21 00:15:53;;;;;;;34.30;6.30;;;;;;;;;;5075348;28;20388;-58
2022/11/21 00:18:19;;;;;;;24.80;5.78;;;;;;;;;;5074835;28;20028;-59
2022/11/21 00:20:45;;;;;;;42.40;6.15;;;;;;;;;;5075016;28;20117;-59
2022/11/21 00:23:12;;;;;;;41.50;7.43;;;;;;;;;;5074658;28;20102;-59
2022/11/21 00:25:38;;;;;;;30.17;7.20;;;;;;;;;;5074944;28;20048;-59
2022/11/21 00:28:05;;;;;;;41.40;6.82;;;;;;;;;;5074805;28;20063;-59
2022/11/21 00:30:31;;;;;;;36.78;6.82;;;;;;;;;;5074780;28;20052;-59
2022/11/21 00:33:00;;;;;;;34.42;6.00;;;;;;;;;;5074669;28;20020;-59
2022/11/21 00:35:26;;;;;;;24.55;5.88;;;;;;;;;;5074716;28;20515;-59
2022/11/21 00:37:52;;;;;;;34.67;5.43;;;;;;;;;;5074788;28;20025;-59
2022/11/21 00:40:19;;;;;;;27.48;6.47;;;;;;;;;;5074690;28;20028;-59
2022/11/21 00:42:45;;;;;;;24.30;5.82;;;;;;;;;;5074731;28;20074;-59
2022/11/21 00:45:11;;;;;;;31.90;6.70;;;;;;;;;;5074447;28;20039;-59
2022/11/21 00:47:37;;;;;;;31.15;6.38;;;;;;;;;;5074121;28;20146;-58
2022/11/21 00:50:03;;;;;;;32.22;5.90;;;;;;;;;;5074741;28;20032;-59
2022/11/21 00:52:29;;;;;;;22.90;5.82;;;;;;;;;;5074321;28;20036;-59
2022/11/21 00:54:55;;;;;;;33.47;6.43;;;;;;;;;;5074702;28;20021;-58
2022/11/21 00:57:22;;;;;;;25.20;5.88;;;;;;;;;;5074498;28;20024;-59
2022/11/21 00:59:48;;;;;;;29.63;7.30;;;;;;;;;;5074374;28;20034;-59
2022/11/21 01:02:14;;;;;;;30.13;5.78;;;;;;;;;;5074151;28;20032;-59
2022/11/21 01:04:40;;;;;;;35.13;6.70;;;;;;;;;;5073980;28;20021;-59
2022/11/21 01:07:06;;;;;;;32.17;7.78;;;;;;;;;;5074432;28;20504;-59
2022/11/21 01:09:32;;;;;;;27.08;7.57;;;;;;;;;;5074173;28;20025;-59
2022/11/21 01:11:58;;;;;;;36.65;6.25;;;;;;;;;;5074312;28;20024;-59
2022/11/21 01:14:24;;;;;;;34.92;6.40;;;;;;;;;;5074141;28;20039;-59
2022/11/21 01:16:50;;;;;;;31.95;6.22;;;;;;;;;;5073759;28;20435;-59
2022/11/21 01:19:16;;;;;;;32.70;5.68;;;;;;;;;;5074180;28;20028;-59
2022/11/21 01:21:42;;;;;;;32.42;6.32;;;;;;;;;;5072619;28;20033;-59
2022/11/21 01:24:10;;;;;;;29.63;5.30;;;;;;;;;;5073381;28;20053;-59
2022/11/21 01:26:37;;;;;;;30.75;6.03;;;;;;;;;;5073707;28;20036;-59
2022/11/21 01:29:03;;;;;;;29.88;5.47;;;;;;;;;;5073968;28;20028;-59
2022/11/21 01:31:30;;;;;;;39.08;6.32;;;;;;;;;;5073377;28;20028;-59
2022/11/21 01:33:57;;;;;;;34.65;7.18;;;;;;;;;;5073830;28;20028;-59
2022/11/21 01:36:24;;;;;;;35.00;5.40;;;;;;;;;;5073762;28;20028;-59
2022/11/21 01:38:51;;;;;;;24.45;5.45;;;;;;;;;;5073652;28;20485;-59
2022/11/21 01:41:19;;;;;;;37.58;6.95;;;;;;;;;;5073953;28;20035;-58
2022/11/21 01:43:46;;;;;;;40.28;6.00;;;;;;;;;;5073268;28;20036;-59
2022/11/21 01:46:19;;;;;;;33.00;5.88;;;;;;;;;;5071781;28;20443;-59
2022/11/21 01:49:06;;;;;;;32.25;5.25;;;;;;;;;;5072035;28;20100;-59
2022/11/21 01:51:41;;;;;;;18.80;4.65;;;;;;;;;;5073251;28;20029;-59
2022/11/21 01:54:10;;;;;;;28.92;5.05;;;;;;;;;;5073122;28;20111;-59
2022/11/21 01:56:40;;;;;;;33.50;6.45;;;;;;;;;;5073182;28;20401;-59
2022/11/21 01:59:08;;;;;;;39.42;10.10;;;;;;;;;;5072082;28;20070;-59
2022/11/21 02:01:35;;;;;;;23.73;4.82;;;;;;;;;;5071611;28;20559;-58
2022/11/21 02:04:02;;;;;;;22.58;5.53;;;;;;;;;;5071535;28;20036;-59
2022/11/21 02:06:29;;;;;;;26.67;5.70;;;;;;;;;;5072942;28;20017;-59
2022/11/21 02:08:57;;;;;;;33.28;4.75;;;;;;;;;;5073144;28;20021;-59
2022/11/21 02:11:29;;;;;;;28.88;4.85;;;;;;;;;;5073040;28;20029;-59
2022/11/21 02:13:55;;;;;;;29.63;5.20;;;;;;;;;;5072329;28;20032;-59
2022/11/21 02:16:22;;;;;;;23.08;4.50;;;;;;;;;;5072347;28;20115;-59
2022/11/21 02:18:48;;;;;;;26.20;5.43;;;;;;;;;;5072374;28;20034;-59
2022/11/21 02:21:17;;;;;;;34.35;5.93;;;;;;;;;;5072768;28;20029;-59
2022/11/21 02:24:05;;;;;;;33.55;4.82;;;;;;;;;;5072232;28;20040;-59
2022/11/21 02:26:31;;;;;;;27.05;5.38;;;;;;;;;;5072779;28;20059;-59
2022/11/21 02:28:58;;;;;;;30.83;5.90;;;;;;;;;;5072452;28;20032;-59
2022/11/21 02:31:24;;;;;;;36.75;5.25;;;;;;;;;;5072619;28;20482;-59
2022/11/21 02:33:50;;;;;;;31.98;6.60;;;;;;;;;;5072512;28;20103;-59
2022/11/21 02:36:31;;;;;;;39.63;5.43;;;;;;;;;;5072373;28;20541;-59
2022/11/21 02:38:57;;;;;;;26.27;5.05;;;;;;;;;;5072697;28;20028;-59
2022/11/21 02:41:27;;;;;;;30.83;4.75;;;;;;;;;;5072707;28;20040;-59
2022/11/21 02:44:05;;;;;;;36.20;5.20;;;;;;;;;;5071902;28;20365;-59
2022/11/21 02:46:33;;;;;;;32.50;4.90;;;;;;;;;;5072043;28;20013;-59
2022/11/21 02:48:59;;;;;;;39.95;6.35;;;;;;;;;;5072348;28;20052;-59
2022/11/21 02:51:25;;;;;;;40.33;6.35;;;;;;;;;;5072216;28;20119;-59
2022/11/21 02:53:51;;;;;;;37.38;7.13;;;;;;;;;;5072342;28;20465;-59
2022/11/21 02:56:17;;;;;;;26.67;5.25;;;;;;;;;;5072575;28;20051;-59
2022/11/21 02:58:43;;;;;;;43.67;6.55;;;;;;;;;;5071800;28;20399;-59
2022/11/21 03:01:09;;;;;;;33.25;5.32;;;;;;;;;;5072267;28;20028;-59
2022/11/21 03:03:36;;;;;;;36.95;5.22;;;;;;;;;;5072186;28;20024;-59
2022/11/21 03:06:02;;;;;;;38.22;7.68;;;;;;;;;;5072218;28;20405;-59
2022/11/21 03:08:28;;;;;;;25.48;5.28;;;;;;;;;;5072264;28;20021;-59
2022/11/21 03:10:54;;;;;;;37.72;6.70;;;;;;;;;;5071919;28;20110;-59
2022/11/21 03:13:20;;;;;;;32.60;5.10;;;;;;;;;;5071863;28;20031;-59
2022/11/21 03:15:46;;;;;;;26.25;4.88;;;;;;;;;;5072121;28;20413;-59
2022/11/21 03:18:12;;;;;;;24.80;5.00;;;;;;;;;;5072072;28;20496;-59
2022/11/21 03:20:38;;;;;;;40.58;5.63;;;;;;;;;;5072017;28;20033;-59
2022/11/21 03:23:04;;;;;;;28.92;5.40;;;;;;;;;;5070331;28;20109;-59
2022/11/21 03:25:31;;;;;;;34.65;5.70;;;;;;;;;;5072057;28;20025;-59
2022/11/21 03:27:57;;;;;;;41.92;6.10;;;;;;;;;;5071607;28;20031;-59
2022/11/21 03:30:24;;;;;;;37.90;5.97;;;;;;;;;;5072011;28;20024;-59
2022/11/21 03:32:50;;;;;;;33.65;5.07;;;;;;;;;;5071723;28;20025;-59
2022/11/21 03:35:16;;;;;;;31.30;4.95;;;;;;;;;;5071939;28;20452;-59
2022/11/21 03:37:43;;;;;;;28.88;6.82;;;;;;;;;;5071840;28;20028;-59
2022/11/21 03:40:09;;;;;;;29.70;4.82;;;;;;;;;;5071880;28;20032;-59
2022/11/21 03:42:35;;;;;;;35.17;7.22;;;;;;;;;;5071605;28;20024;-59
2022/11/21 03:45:01;;;;;;;21.45;4.78;;;;;;;;;;5071428;28;20025;-59
2022/11/21 03:47:27;;;;;;;31.48;5.38;;;;;;;;;;5071923;28;20486;-59
2022/11/21 03:49:53;;;;;;;24.55;5.38;;;;;;;;;;5071415;28;20086;-59
2022/11/21 03:52:19;;;;;;;34.70;5.30;;;;;;;;;;5071955;28;20478;-59
2022/11/21 03:54:45;;;;;;;26.33;6.43;;;;;;;;;;5071163;28;20032;-59
2022/11/21 03:57:12;;;;;;;29.65;5.65;;;;;;;;;;5071368;28;20108;-59
2022/11/21 03:59:38;;;;;;;34.88;6.65;;;;;;;;;;5071763;28;20114;-59
2022/11/21 04:02:04;;;;;;;42.60;5.97;;;;;;;;;;5071541;28;20025;-59
2022/11/21 04:04:30;;;;;;;25.77;5.28;;;;;;;;;;5071608;28;20040;-59
2022/11/21 04:06:56;;;;;;;39.35;5.53;;;;;;;;;;5071506;28;20501;-59
2022/11/21 04:09:22;;;;;;;29.98;5.25;;;;;;;;;;5071391;28;20032;-59
2022/11/21 04:11:48;;;;;;;37.58;5.10;;;;;;;;;;5071042;28;20448;-59
2022/11/21 04:14:14;;;;;;;26.02;5.20;;;;;;;;;;5071579;28;20039;-59
2022/11/21 04:16:40;;;;;;;33.33;5.70;;;;;;;;;;5071555;28;20425;-59
2022/11/21 04:19:06;;;;;;;26.40;5.00;;;;;;;;;;5071333;28;20497;-59
2022/11/21 04:21:32;;;;;;;36.65;5.50;;;;;;;;;;5073316;28;20032;-59
2022/11/21 04:23:59;;;;;;;29.02;5.45;;;;;;;;;;5074511;28;20049;-59
2022/11/21 04:26:25;;;;;;;30.30;5.28;;;;;;;;;;5074953;28;20036;-59
2022/11/21 04:28:51;;;;;;;34.70;5.20;;;;;;;;;;5074553;28;20020;-59
2022/11/21 04:31:17;;;;;;;28.38;4.85;;;;;;;;;;5074952;28;20481;-59
2022/11/21 04:33:43;;;;;;;37.35;5.75;;;;;;;;;;5074598;28;20043;-59
2022/11/21 04:36:09;;;;;;;34.10;5.35;;;;;;;;;;5074873;28;20037;-59
2022/11/21 04:38:35;;;;;;;39.53;4.85;;;;;;;;;;5074433;28;20444;-59
2022/11/21 04:41:01;;;;;;;30.92;5.30;;;;;;;;;;5074599;28;20029;-59
2022/11/21 04:43:27;;;;;;;42.50;5.45;;;;;;;;;;5074731;28;20496;-59
2022/11/21 04:45:54;;;;;;;29.88;5.25;;;;;;;;;;5074995;28;20017;-59
2022/11/21 04:48:20;;;;;;;36.20;5.93;;;;;;;;;;5074712;28;20393;-59
2022/11/21 04:50:46;;;;;;;34.20;5.28;;;;;;;;;;5074466;28;20481;-59
2022/11/21 04:53:12;;;;;;;30.85;5.47;;;;;;;;;;5074097;28;20024;-59
2022/11/21 04:55:38;;;;;;;39.72;5.45;;;;;;;;;;5073413;28;20028;-59
2022/11/21 04:58:04;;;;;;;35.67;5.85;;;;;;;;;;5068662;28;20028;-59
2022/11/21 05:00:30;;;;;;;30.65;5.75;;;;;;;;;;5071910;28;20078;-59
2022/11/21 05:03:01;;;;;;;32.17;5.80;;;;;;;;;;5073871;28;20025;-59
2022/11/21 05:05:27;;;;;;;32.33;7.45;;;;;;;;;;5074234;28;20476;-59
2022/11/21 05:07:53;;;;;;;25.88;5.03;;;;;;;;;;5073585;28;20056;-59
2022/11/21 05:10:20;;;;;;;33.22;5.75;;;;;;;;;;5074046;28;20017;-59
2022/11/21 05:15:31;;;;;;;36.13;5.18;;;;;;;;;;5059932;28;20025;-59
2022/11/21 05:18:00;;;;;;;40.55;5.95;;;;;;;;;;5073650;28;20024;-59
2022/11/21 05:20:26;;;;;;;31.58;5.47;;;;;;;;;;5072516;28;20478;-59
2022/11/21 05:22:52;;;;;;;34.15;5.53;;;;;;;;;;5073073;28;20021;-59
2022/11/21 05:25:18;;;;;;;37.58;8.38;;;;;;;;;;5073122;28;20017;-59
2022/11/21 05:27:44;;;;;;;28.60;4.55;;;;;;;;;;5073779;28;20063;-59
2022/11/21 05:30:11;;;;;;;32.45;5.55;;;;;;;;;;5073453;28;20036;-59
2022/11/21 05:32:37;;;;;;;31.45;6.00;;;;;;;;;;5073619;28;20024;-59
2022/11/21 05:35:03;;;;;;;23.23;4.43;;;;;;;;;;5072435;28;20375;-59
2022/11/21 05:37:30;;;;;;;31.52;5.95;;;;;;;;;;5072929;28;20035;-59
2022/11/21 05:39:56;;;;;;;36.45;7.90;;;;;;;;;;5073301;28;20051;-59
2022/11/21 05:43:44;;;;;;;25.58;5.28;;;;;;;;;;5073347;28;20033;-59
2022/11/21 05:45:08;;;;;;;30.55;5.30;;;;;;;;;;5072796;28;20109;-59
2022/11/21 05:47:34;;;;;;;18.77;4.80;;;;;;;;;;5073535;28;20029;-59
2022/11/21 05:50:01;;;;;;;20.40;3.63;;;;;;;;;;5073045;28;20512;-59
2022/11/21 05:52:27;;;;;;;21.08;4.07;;;;;;;;;;5071792;28;20033;-59
2022/11/21 05:54:53;;;;;;;29.23;3.42;;;;;;;;;;5068199;28;20016;-59
2022/11/21 05:57:19;;;;;;;26.58;3.65;;;;;;;;;;5062927;28;20074;-59
2022/11/21 05:59:46;;;;;;;26.15;3.88;;;;;;;;;;5072010;28;20107;-59
2022/11/21 06:04:56;;;;;;;27.40;5.10;;;;;;;;;;5071899;28;20067;-59
2022/11/21 06:07:22;;;;;;;25.42;3.60;;;;;;;;;;5070431;28;20025;-59
2022/11/21 06:09:48;;;;;;;18.85;3.83;;;;;;;;;;5071326;28;20020;-59
2022/11/21 06:12:14;;;;;;;19.98;3.58;;;;;;;;;;5071226;28;20020;-59
2022/11/21 06:14:41;;;;;;;11.50;2.42;;;;;;;;;;5071723;28;20024;-59
2022/11/21 06:17:07;;;;;;;17.73;3.92;;;;;;;;;;5071714;28;20103;-59
2022/11/21 06:19:33;;;;;;;17.75;2.70;;;;;;;;;;5072380;28;20127;-59
2022/11/21 06:21:59;;;;;;;14.23;2.90;;;;;;;;;;5072074;28;20040;-59
2022/11/21 06:24:25;;;;;;;17.00;2.60;;;;;;;;;;5069204;28;20489;-59
2022/11/21 06:26:51;;;;;;;13.30;2.33;;;;;;;;;;5071278;28;20067;-59
2022/11/21 06:29:20;;;;;;;11.32;2.55;;;;;;;;;;5070119;28;20020;-59
2022/11/21 06:31:47;;;;;;;11.43;2.45;;;;;;;;;;5071887;28;20020;-59
2022/11/21 06:34:13;;;;;;;10.73;1.85;;;;;;;;;;5070654;28;20377;-59
2022/11/21 06:36:39;;;;;;;10.90;2.28;;;;;;;;;;5069975;28;20025;-59
2022/11/21 06:39:05;;;;;;;10.45;2.15;;;;;;;;;;5071905;28;20025;-59
2022/11/21 06:41:31;;;;;;;12.80;1.98;;;;;;;;;;5071547;28;20029;-65
2022/11/21 06:44:00;;;;;;;13.60;2.47;;;;;;;;;;5071317;28;20383;-59
2022/11/21 06:46:27;;;;;;;7.05;2.10;;;;;;;;;;5070868;28;20024;-59
2022/11/21 06:48:53;;;;;;;10.80;2.10;;;;;;;;;;5071589;28;20024;-59
2022/11/21 06:51:20;;;;;;;7.95;1.50;;;;;;;;;;5070072;28;20029;-60
2022/11/21 06:53:47;;;;;;;5.50;1.67;;;;;;;;;;5071396;28;20023;-59
2022/11/21 06:56:14;;;;;;;4.57;1.30;;;;;;;;;;5070844;28;20074;-59
2022/11/21 06:58:40;;;;;;;9.43;1.25;;;;;;;;;;5070419;28;20028;-59
2022/11/21 07:01:09;;;;;;;4.05;1.42;;;;;;;;;;5069451;28;20452;-59
2022/11/21 07:03:35;;;;;;;7.53;1.58;;;;;;;;;;5067525;28;20107;-59
2022/11/21 07:06:02;;;;;;;5.07;1.40;;;;;;;;;;5071726;28;20112;-59
2022/11/21 07:08:29;;;;;;;7.45;1.65;;;;;;;;;;5070895;28;20035;-59
2022/11/21 07:10:55;;;;;;;10.00;1.88;;;;;;;;;;5071438;28;20465;-59
2022/11/21 07:13:21;;;;;;;5.38;1.02;;;;;;;;;;5070536;28;20028;-59
2022/11/21 07:15:48;;;;;;;8.57;1.48;;;;;;;;;;5070131;28;20397;-59
2022/11/21 07:18:15;;;;;;;6.78;1.10;;;;;;;;;;5068803;28;20029;-60
2022/11/21 07:20:41;;;;;;;2.95;0.90;;;;;;;;;;5071494;28;20020;-59
2022/11/21 07:23:08;;;;;;;4.35;1.13;;;;;;;;;;5070411;28;20447;-59
2022/11/21 07:25:34;;;;;;;3.65;0.98;;;;;;;;;;5071161;28;20024;-60
2022/11/21 07:28:01;;;;;;;3.20;0.77;;;;;;;;;;5069137;28;20028;-59
2022/11/21 07:30:28;;;;;;;3.50;1.00;;;;;;;;;;5071478;28;20048;-59
2022/11/21 07:32:57;;;;;;;1.30;0.50;;;;;;;;;;5070457;28;20013;-59
2022/11/21 07:35:23;;;;;;;1.48;0.55;;;;;;;;;;5071304;28;20043;-59
2022/11/21 07:37:49;;;;;;;5.35;0.75;;;;;;;;;;5070395;28;20025;-59
2022/11/21 07:40:15;;;;;;;2.45;0.98;;;;;;;;;;5063910;28;20024;-59
2022/11/21 07:42:41;;;;;;;1.85;0.65;;;;;;;;;;5060194;28;20029;-59
2022/11/21 07:45:08;;;;;;;1.98;0.70;;;;;;;;;;5056097;28;20020;-60
2022/11/21 07:47:34;;;;;;;2.00;0.90;;;;;;;;;;5066942;28;20017;-59
2022/11/21 07:50:00;;;;;;;2.97;0.70;;;;;;;;;;5069971;28;20024;-59
2022/11/21 07:52:29;;;;;;;3.45;0.80;;;;;;;;;;5069854;28;20070;-60
2022/11/21 07:54:55;;;;;;;6.13;1.08;;;;;;;;;;5069895;28;20058;-59
2022/11/21 07:57:21;;;;;;;4.18;0.80;;;;;;;;;;5074711;28;20044;-60
2022/11/21 07:59:47;;;;;;;1.33;0.57;;;;;;;;;;5074109;28;20032;-60
2022/11/21 08:02:23;;;;;;;3.13;0.80;;;;;;;;;;5072972;28;20028;-60
2022/11/21 08:04:50;;;;;;;3.78;0.57;;;;;;;;;;5067471;28;20039;-66
2022/11/21 08:07:16;;;;;;;2.05;0.45;;;;;;;;;;5074337;28;20395;-66
2022/11/21 08:09:43;;;;;;;1.10;0.45;;;;;;;;;;5074600;28;20075;-66
2022/11/21 08:12:09;;;;;;;0.30;0.30;;;;;;;;;;5074261;28;20024;-66
2022/11/21 08:14:36;;;;;;;2.33;0.40;;;;;;;;;;5073514;28;20036;-66
2022/11/21 08:17:02;;;;;;;2.33;0.40;;;;;;;;;;5073490;28;20126;-65
2022/11/21 08:19:28;;;;;;;2.40;0.75;;;;;;;;;;5073473;28;20052;-66
2022/11/21 08:21:54;;;;;;;1.40;0.40;;;;;;;;;;5071965;28;20024;-66
2022/11/21 08:24:20;;;;;;;3.50;0.60;;;;;;;;;;5071937;28;20080;-66
2022/11/21 08:26:47;;;;;;;1.75;0.30;;;;;;;;;;5072925;28;20111;-66
2022/11/21 08:29:14;;;;;;;0.70;0.43;;;;;;;;;;5073346;28;20549;-66
2022/11/21 08:31:40;;;;;;;1.58;0.32;;;;;;;;;;5072716;28;20111;-66
2022/11/21 08:34:07;;;;;;;0.50;0.50;;;;;;;;;;5073681;28;20029;-66
2022/11/21 08:36:33;;;;;;;1.88;1.33;;;;;;;;;;5073157;28;20017;-66
2022/11/21 08:38:59;;;;;;;2.90;0.50;;;;;;;;;;5073267;28;20043;-66
2022/11/21 08:44:10;;;;;;;2.45;0.70;;;;;;;;;;5073392;28;20029;-66
2022/11/21 08:46:36;;;;;;;0.60;0.50;;;;;;;;;;5072679;28;20008;-66
2022/11/21 08:49:06;;;;;;;0.65;0.60;;;;;;;;;;5071108;28;20031;-66
2022/11/21 08:51:32;;;;;;;0.50;0.32;;;;;;;;;;5073032;28;20501;-66
2022/11/21 08:53:58;;;;;;;0.95;0.75;;;;;;;;;;5073104;28;20029;-65
2022/11/21 08:56:25;;;;;;;0.80;0.60;;;;;;;;;;5072803;28;20024;-66
2022/11/21 08:58:51;;;;;;;0.43;0.30;;;;;;;;;;5072608;28;20027;-66
2022/11/21 09:01:17;;;;;;;3.10;0.40;;;;;;;;;;5072797;28;20468;-66
2022/11/21 09:03:44;;;;;;;1.13;0.52;;;;;;;;;;5072776;28;20033;-66
2022/11/21 09:06:11;;;;;;;13.93;2.58;;;;;;;;;;5073018;28;20126;-66
2022/11/21 09:08:37;;;;;;;45.38;7.07;;;;;;;;;;5059288;28;20028;-66
2022/11/21 09:11:07;;;;;;;56.92;8.57;;;;;;;;;;5071315;28;20402;-66
2022/11/21 09:13:34;;;;;;;61.60;7.63;;;;;;;;;;5069295;28;20131;-66
2022/11/21 09:18:45;;;;;;;65.13;9.43;;;;;;;;;;5070623;28;20029;-66
2022/11/21 09:21:15;;;;;;;59.70;10.00;;;;;;;;;;5071522;28;20032;-66
2022/11/21 09:23:42;;;;;;;46.53;8.15;;;;;;;;;;5072236;28;20048;-66
2022/11/21 09:26:08;;;;;;;59.65;9.23;;;;;;;;;;5072571;28;20024;-66
2022/11/21 09:28:34;;;;;;;51.35;8.20;;;;;;;;;;5071863;28;20513;-66
2022/11/21 09:31:04;;;;;;;50.40;7.45;;;;;;;;;;5072182;28;20021;-66
2022/11/21 09:33:30;;;;;;;47.38;6.65;;;;;;;;;;5072317;28;20104;-66
2022/11/21 09:35:59;;;;;;;55.30;9.38;;;;;;;;;;5072168;28;20035;-66
2022/11/21 09:38:26;;;;;;;55.78;8.32;;;;;;;;;;5072037;28;20028;-65
2022/11/21 09:40:56;;;;;;;28.58;4.75;;;;;;;;;;5071552;28;20047;-65
2022/11/21 09:43:25;;;;;;;29.90;6.40;;;;;;;;;;5071373;28;20025;-66
2022/11/21 09:45:52;;;;;;;28.83;5.57;;;;;;;;;;5071589;28;20035;-66
2022/11/21 09:48:28;;;;;;;41.10;6.55;;;;;;;;;;5071174;28;20507;-66
2022/11/21 09:50:57;;;;;;;54.58;9.05;;;;;;;;;;5066542;28;20017;-66
2022/11/21 09:53:34;;;;;;;43.72;7.28;;;;;;;;;;5068851;28;20025;-66
2022/11/21 09:56:26;;;;;;;50.30;7.38;;;;;;;;;;5071339;28;20062;-66
2022/11/21 09:59:10;;;;;;;63.10;7.35;;;;;;;;;;5069816;28;20551;-66
2022/11/21 10:01:36;;;;;;;47.35;8.02;;;;;;;;;;5053852;28;20036;-65
2022/11/21 10:04:03;;;;;;;56.88;8.88;;;;;;;;;;5060698;28;20025;-65
2022/11/21 10:06:31;;;;;;;44.63;6.63;;;;;;;;;;5073447;28;20147;-66
2022/11/21 10:09:09;;;;;;;53.08;9.68;;;;;;;;;;5073192;28;20347;-66
2022/11/21 10:12:35;;;;;;;44.58;6.85;;;;;;;;;;5073580;28;20020;-66
2022/11/21 10:14:44;;;;;;;48.25;6.28;;;;;;;;;;5072896;28;20086;-66
2022/11/21 10:17:20;;;;;;;41.35;6.90;;;;;;;;;;5072336;28;20028;-66
2022/11/21 10:19:49;;;;;;;31.80;5.00;;;;;;;;;;5071901;28;20024;-66
2022/11/21 10:22:25;;;;;;;30.52;4.90;;;;;;;;;;5072501;28;20025;-65
2022/11/21 10:25:17;;;;;;;46.35;6.80;;;;;;;;;;5071256;28;20055;-66
2022/11/21 10:27:43;;;;;;;39.92;6.80;;;;;;;;;;5072027;28;20031;-66
2022/11/21 10:30:17;;;;;;;32.15;5.40;;;;;;;;;;5072696;28;20025;-66
2022/11/21 10:32:45;;;;;;;32.42;5.53;;;;;;;;;;5072001;28;20481;-66
2022/11/21 10:35:15;;;;;;;38.80;6.13;;;;;;;;;;5072376;28;20070;-66
2022/11/21 10:37:55;;;;;;;25.27;4.95;;;;;;;;;;5072726;28;20025;-66
2022/11/21 10:40:33;;;;;;;32.95;5.95;;;;;;;;;;5072461;28;20039;-66
2022/11/21 10:45:15;;;;;;;40.45;5.38;;;;;;;;;;5072156;28;20116;-66
2022/11/21 10:45:50;;;;;;;21.60;4.40;;;;;;;;;;5072391;28;20406;-66
2022/11/21 10:48:17;;;;;;;35.13;6.15;;;;;;;;;;5072524;28;20460;-66
2022/11/21 10:51:01;;;;;;;34.80;5.78;;;;;;;;;;5072476;28;20032;-66
2022/11/21 10:56:34;;;;;;;22.38;3.92;;;;;;;;;;5049731;28;20033;-65
2022/11/21 10:59:11;;;;;;;21.65;4.45;;;;;;;;;;5050076;28;20143;-66
2022/11/21 11:01:37;;;;;;;34.58;5.68;;;;;;;;;;5050244;28;20037;-66
2022/11/21 11:04:05;;;;;;;35.63;5.35;;;;;;;;;;5049901;28;20111;-66
2022/11/21 11:06:31;;;;;;;22.65;4.00;;;;;;;;;;5050046;28;20379;-66
2022/11/21 11:08:57;;;;;;;41.85;5.68;;;;;;;;;;5049931;28;20029;-66
2022/11/21 11:11:26;;;;;;;31.50;5.55;;;;;;;;;;5049722;28;20025;-66
2022/11/21 11:13:52;;;;;;;26.48;5.82;;;;;;;;;;5049979;28;20041;-66
2022/11/21 11:16:20;;;;;;;28.75;5.60;;;;;;;;;;5049612;28;20419;-66
2022/11/21 11:19:07;;;;;;;45.67;5.90;;;;;;;;;;5033363;28;20088;-66
2022/11/21 11:21:45;;;;;;;17.98;3.90;;;;;;;;;;5050007;28;20406;-66
2022/11/21 11:24:11;;;;;;;23.63;5.38;;;;;;;;;;5049381;28;20215;-66
2022/11/21 11:26:46;;;;;;;30.83;5.55;;;;;;;;;;5054119;28;20036;-66
2022/11/21 11:29:15;;;;;;;33.45;5.03;;;;;;;;;;5071000;28;20024;-66
2022/11/21 11:31:49;;;;;;;20.83;3.60;;;;;;;;;;5073306;28;20393;-66
2022/11/21 11:34:16;;;;;;;16.73;2.83;;;;;;;;;;5074241;28;20024;-66
2022/11/21 11:36:53;;;;;;;18.08;4.03;;;;;;;;;;5074223;28;20576;-66
2022/11/21 11:39:22;;;;;;;26.33;5.15;;;;;;;;;;5073964;28;20082;-66
2022/11/21 11:47:58;;;;;;;25.98;4.32;;;;;;;;;;5050920;28;20036;-66
2022/11/21 11:50:28;;;;;;;25.02;3.85;;;;;;;;;;5051660;28;20033;-66
2022/11/21 11:53:07;;;;;;;24.25;4.45;;;;;;;;;;5051952;28;20031;-66
2022/11/21 11:55:36;;;;;;;30.27;3.97;;;;;;;;;;5051699;28;20094;-65
2022/11/21 11:58:06;;;;;;;20.05;3.97;;;;;;;;;;5051111;28;20033;-66
2022/11/21 12:00:36;;;;;;;22.98;4.03;;;;;;;;;;5052744;28;20120;-66
2022/11/21 12:03:05;;;;;;;27.05;4.05;;;;;;;;;;5049565;28;20049;-65
2022/11/21 12:05:31;;;;;;;28.63;4.80;;;;;;;;;;5047069;28;20115;-65
2022/11/21 12:08:19;;;;;;;20.50;3.78;;;;;;;;;;5045122;28;20494;-65
2022/11/21 12:13:35;;;;;;;24.67;4.28;;;;;;;;;;5047075;28;20047;-65
2022/11/21 12:16:04;;;;;;;17.05;3.65;;;;;;;;;;5049232;28;20033;-66
2022/11/21 12:18:50;;;;;;;18.95;3.33;;;;;;;;;;5048442;28;20025;-66
2022/11/21 12:21:20;;;;;;;16.45;3.03;;;;;;;;;;5049909;28;20041;-66
2022/11/21 12:23:46;;;;;;;14.27;2.35;;;;;;;;;;5071579;28;20061;-65
2022/11/21 12:26:15;;;;;;;16.55;3.25;;;;;;;;;;5073712;28;20028;-65
2022/11/21 12:28:59;;;;;;;19.65;4.30;;;;;;;;;;5073858;28;20104;-66
2022/11/21 12:31:25;;;;;;;30.80;4.85;;;;;;;;;;5068645;28;20028;-65
2022/11/21 12:34:03;;;;;;;23.10;3.42;;;;;;;;;;5073616;28;20111;-69
2022/11/21 12:36:35;;;;;;;24.08;3.90;;;;;;;;;;5066973;28;20032;-65
2022/11/21 12:39:08;;;;;;;17.08;3.58;;;;;;;;;;5071877;28;20485;-65
2022/11/21 12:44:36;;;;;;;23.10;4.07;;;;;;;;;;5074410;28;20116;-59
2022/11/21 12:47:23;;;;;;;22.17;4.28;;;;;;;;;;5074746;28;20024;-59
2022/11/21 12:55:32;;;;;;;23.77;3.72;;;;;;;;;;5072379;28;20105;-59
2022/11/21 12:58:07;;;;;;;21.95;3.92;;;;;;;;;;5072438;28;20029;-59
2022/11/21 13:00:36;;;;;;;26.77;4.43;;;;;;;;;;5072144;28;20498;-59
2022/11/21 13:03:08;;;;;;;17.10;3.40;;;;;;;;;;5072455;28;20029;-60
2022/11/21 13:05:37;;;;;;;16.88;2.90;;;;;;;;;;5072164;28;20040;-60
2022/11/21 13:08:14;;;;;;;9.05;2.33;;;;;;;;;;5071733;28;20040;-60
2022/11/21 13:10:44;;;;;;;6.47;1.70;;;;;;;;;;5072167;28;20029;-60
2022/11/21 13:13:10;;;;;;;5.95;1.00;;;;;;;;;;5072141;28;20045;-60
2022/11/21 13:15:36;;;;;;;11.40;1.23;;;;;;;;;;5072208;28;20429;-60
2022/11/21 13:18:05;;;;;;;15.20;1.80;;;;;;;;;;5072112;28;20121;-60
2022/11/21 13:20:33;;;;;;;9.48;2.08;;;;;;;;;;5071218;28;20430;-60
2022/11/21 13:23:00;;;;;;;11.20;2.55;;;;;;;;;;5071845;28;20048;-60
2022/11/21 13:25:32;;;;;;;18.33;2.90;;;;;;;;;;5071325;28;20056;-60
2022/11/21 13:28:11;;;;;;;15.95;2.00;;;;;;;;;;5073954;28;20497;-60
2022/11/21 13:30:50;;;;;;;21.98;3.95;;;;;;;;;;5072829;28;20054;-60
2022/11/21 13:33:35;;;;;;;18.23;3.85;;;;;;;;;;5073549;28;20035;-60
2022/11/21 13:36:04;;;;;;;17.10;2.88;;;;;;;;;;5073509;28;20028;-60
2022/11/21 13:38:31;;;;;;;18.65;3.55;;;;;;;;;;5073435;28;20056;-60
2022/11/21 13:43:42;;;;;;;8.90;2.08;;;;;;;;;;5073593;28;20117;-60
2022/11/21 13:46:09;;;;;;;11.85;1.95;;;;;;;;;;5060534;28;20021;-60
2022/11/21 13:48:35;;;;;;;3.95;1.55;;;;;;;;;;5052288;28;20032;-59
2022/11/21 13:51:20;;;;;;;11.50;1.40;;;;;;;;;;5058135;28;20423;-60
2022/11/21 13:53:52;;;;;;;11.30;1.60;;;;;;;;;;5072518;28;20386;-60
2022/11/21 13:56:25;;;;;;;9.80;1.58;;;;;;;;;;5073409;28;20036;-60
2022/11/21 13:59:06;;;;;;;8.88;2.08;;;;;;;;;;5073180;28;20054;-60
2022/11/21 14:01:40;;;;;;;11.38;2.75;;;;;;;;;;5072958;28;20028;-60
2022/11/21 14:04:15;;;;;;;14.40;2.72;;;;;;;;;;5072913;28;20040;-60
2022/11/21 14:06:42;;;;;;;12.63;3.33;;;;;;;;;;5073199;28;20040;-60
2022/11/21 14:09:11;;;;;;;19.65;3.17;;;;;;;;;;5073099;28;20106;-60
2022/11/21 14:11:47;;;;;;;23.17;4.40;;;;;;;;;;5072889;28;20028;-60
2022/11/21 14:14:23;;;;;;;12.27;3.22;;;;;;;;;;5073110;28;20558;-60
2022/11/21 14:16:51;;;;;;;14.68;2.53;;;;;;;;;;5073011;28;20508;-60
2022/11/21 14:19:19;;;;;;;22.08;3.85;;;;;;;;;;5072570;28;20031;-59
2022/11/21 14:21:46;;;;;;;14.52;2.67;;;;;;;;;;5072436;28;20545;-60
2022/11/21 14:24:14;;;;;;;17.38;2.83;;;;;;;;;;5072261;28;20116;-60
2022/11/21 14:26:43;;;;;;;12.73;2.85;;;;;;;;;;5072550;28;20025;-60
2022/11/21 14:29:22;;;;;;;20.63;3.13;;;;;;;;;;5072752;28;20052;-60
2022/11/21 14:31:49;;;;;;;16.98;3.75;;;;;;;;;;5072819;28;20370;-60
2022/11/21 14:34:28;;;;;;;28.33;4.22;;;;;;;;;;5072495;28;20035;-60
2022/11/21 14:36:55;;;;;;;24.88;4.55;;;;;;;;;;5072864;28;20032;-59
2022/11/21 14:39:23;;;;;;;29.42;4.55;;;;;;;;;;5072228;28;20098;-59
2022/11/21 14:41:51;;;;;;;41.22;4.00;;;;;;;;;;5072563;28;20119;-60
2022/11/21 14:44:18;;;;;;;35.15;3.60;;;;;;;;;;5072681;28;20401;-59
2022/11/21 14:46:45;;;;;;;28.00;4.53;;;;;;;;;;5071872;28;20113;-59
2022/11/21 14:49:14;;;;;;;22.10;4.07;;;;;;;;;;5072075;28;20047;-60
2022/11/21 14:51:41;;;;;;;20.30;3.13;;;;;;;;;;5072310;28;21358;-59
2022/11/21 14:54:15;;;;;;;17.17;2.90;;;;;;;;;;5072538;28;20069;-60
2022/11/21 14:56:41;;;;;;;22.35;3.65;;;;;;;;;;5072053;28;20465;-59
2022/11/21 14:59:13;;;;;;;16.98;3.50;;;;;;;;;;5072363;28;20090;-59
2022/11/21 15:01:39;;;;;;;13.35;2.88;;;;;;;;;;5072228;28;20032;-59
2022/11/21 15:04:07;;;;;;;21.83;3.05;;;;;;;;;;5071733;28;20025;-60
2022/11/21 15:06:41;;;;;;;19.38;3.08;;;;;;;;;;5071879;28;20075;-60
2022/11/21 15:09:11;;;;;;;16.95;3.08;;;;;;;;;;5072390;28;20029;-59
2022/11/21 15:11:42;;;;;;;19.50;4.63;;;;;;;;;;5072026;28;20016;-59
2022/11/21 15:14:17;;;;;;;31.65;5.93;;;;;;;;;;5072286;28;20050;-59